sensor_id;sensor_type;location;lat;lon;timestamp;pressure;altitude;pressure_sealevel;temperature;humidity
15529;BME280;7866;52.280;9.500;2023-03-26T00:03:13;99205.91;;;8.48;88.55
15529;BME280;7866;52.280;9.500;2023-03-26T00:08:16;99204.69;;;8.35;90.82
15529;BME280;7866;52.280;9.500;2023-03-26T00:13:18;99216.03;;;8.37;91.29
15529;BME280;7866;52.280;9.500;2023-03-26T00:18:21;99220.22;;;8.32;92.51
15529;BME280;7866;52.280;9.500;2023-03-26T00:23:24;99214.88;;;8.32;91.96
15529;BME280;7866;52.280;9.500;2023-03-26T00:28:26;99225.56;;;8.32;91.84
15529;BME280;7866;52.280;9.500;2023-03-26T00:33:30;99230.53;;;8.35;91.24
15529;BME280;7866;52.280;9.500;2023-03-26T00:38:32;99222.84;;;8.40;90.00
15529;BME280;7866;52.280;9.500;2023-03-26T00:43:38;99227.69;;;8.36;89.49
15529;BME280;7866;52.280;9.500;2023-03-26T00:48:41;99250.53;;;8.39;90.00
15529;BME280;7866;52.280;9.500;2023-03-26T00:53:43;99251.06;;;8.34;88.36
15529;BME280;7866;52.280;9.500;2023-03-26T00:58:45;99246.53;;;8.35;87.28
15529;BME280;7866;52.280;9.500;2023-03-26T01:03:50;99247.63;;;8.26;86.91
15529;BME280;7866;52.280;9.500;2023-03-26T01:09:02;99247.53;;;8.19;86.84
15529;BME280;7866;52.280;9.500;2023-03-26T01:14:06;99249.06;;;8.13;86.40
15529;BME280;7866;52.280;9.500;2023-03-26T01:19:14;99252.66;;;8.06;86.62
15529;BME280;7866;52.280;9.500;2023-03-26T01:24:21;99252.81;;;8.04;86.28
15529;BME280;7866;52.280;9.500;2023-03-26T01:29:29;99257.13;;;8.05;85.80
15529;BME280;7866;52.280;9.500;2023-03-26T01:34:42;99263.66;;;8.03;85.62
15529;BME280;7866;52.280;9.500;2023-03-26T01:39:54;99254.19;;;8.00;85.02
15529;BME280;7866;52.280;9.500;2023-03-26T01:45:00;99244.34;;;8.01;84.46
15529;BME280;7866;52.280;9.500;2023-03-26T01:50:04;99249.19;;;7.97;84.42
15529;BME280;7866;52.280;9.500;2023-03-26T01:55:08;99247.56;;;7.96;83.85
15529;BME280;7866;52.280;9.500;2023-03-26T02:00:18;99240.38;;;7.97;83.81
15529;BME280;7866;52.280;9.500;2023-03-26T02:05:23;99240.22;;;7.98;82.76
15529;BME280;7866;52.280;9.500;2023-03-26T02:10:29;99238.44;;;7.90;83.06
15529;BME280;7866;52.280;9.500;2023-03-26T02:15:31;99235.94;;;7.89;83.28
15529;BME280;7866;52.280;9.500;2023-03-26T02:20:33;99233.81;;;7.84;83.21
15529;BME280;7866;52.280;9.500;2023-03-26T02:25:36;99233.00;;;7.84;83.32
15529;BME280;7866;52.280;9.500;2023-03-26T02:30:39;99238.31;;;7.84;83.76
15529;BME280;7866;52.280;9.500;2023-03-26T02:35:42;99228.69;;;7.83;84.12
15529;BME280;7866;52.280;9.500;2023-03-26T02:40:46;99240.50;;;7.80;84.48
15529;BME280;7866;52.280;9.500;2023-03-26T02:45:48;99222.31;;;7.84;85.12
15529;BME280;7866;52.280;9.500;2023-03-26T02:50:50;99218.66;;;7.85;84.84
15529;BME280;7866;52.280;9.500;2023-03-26T02:55:55;99222.13;;;7.85;84.89
15529;BME280;7866;52.280;9.500;2023-03-26T03:00:56;99208.19;;;7.83;84.74
15529;BME280;7866;52.280;9.500;2023-03-26T03:05:58;99216.06;;;7.77;84.60
15529;BME280;7866;52.280;9.500;2023-03-26T03:11:02;99209.69;;;7.78;84.53
15529;BME280;7866;52.280;9.500;2023-03-26T03:16:05;99204.09;;;7.73;84.32
15529;BME280;7866;52.280;9.500;2023-03-26T03:21:07;99198.13;;;7.71;84.10
15529;BME280;7866;52.280;9.500;2023-03-26T03:26:14;99201.13;;;7.68;83.89
15529;BME280;7866;52.280;9.500;2023-03-26T03:31:16;99200.13;;;7.69;84.10
15529;BME280;7866;52.280;9.500;2023-03-26T03:36:20;99197.31;;;7.70;83.52
15529;BME280;7866;52.280;9.500;2023-03-26T03:41:23;99195.47;;;7.71;82.86
15529;BME280;7866;52.280;9.500;2023-03-26T03:46:25;99196.50;;;7.61;83.78
15529;BME280;7866;52.280;9.500;2023-03-26T03:51:26;99201.34;;;7.66;83.78
15529;BME280;7866;52.280;9.500;2023-03-26T03:56:29;99196.81;;;7.67;83.68
15529;BME280;7866;52.280;9.500;2023-03-26T04:01:31;99206.81;;;7.64;83.57
15529;BME280;7866;52.280;9.500;2023-03-26T04:06:33;99204.16;;;7.64;83.90
15529;BME280;7866;52.280;9.500;2023-03-26T04:11:36;99212.63;;;7.68;83.93
15529;BME280;7866;52.280;9.500;2023-03-26T04:16:37;99217.41;;;7.73;83.75
15529;BME280;7866;52.280;9.500;2023-03-26T04:21:39;99213.09;;;7.72;84.00
15529;BME280;7866;52.280;9.500;2023-03-26T04:26:46;99212.75;;;7.75;84.73
15529;BME280;7866;52.280;9.500;2023-03-26T04:31:49;99212.84;;;7.81;85.05
15529;BME280;7866;52.280;9.500;2023-03-26T04:36:58;99205.66;;;7.82;85.08
15529;BME280;7866;52.280;9.500;2023-03-26T04:42:02;99207.50;;;7.81;84.88
15529;BME280;7866;52.280;9.500;2023-03-26T04:47:04;99208.06;;;7.77;84.89
15529;BME280;7866;52.280;9.500;2023-03-26T04:52:05;99205.03;;;7.80;84.85
15529;BME280;7866;52.280;9.500;2023-03-26T04:57:13;99204.75;;;7.75;84.66
15529;BME280;7866;52.280;9.500;2023-03-26T05:02:18;99206.47;;;7.68;84.97
15529;BME280;7866;52.280;9.500;2023-03-26T05:07:20;99198.13;;;7.71;84.50
15529;BME280;7866;52.280;9.500;2023-03-26T05:12:24;99197.75;;;7.74;84.62
15529;BME280;7866;52.280;9.500;2023-03-26T05:17:26;99195.06;;;7.74;84.25
15529;BME280;7866;52.280;9.500;2023-03-26T05:22:30;99198.47;;;7.68;84.50
15529;BME280;7866;52.280;9.500;2023-03-26T05:27:33;99192.47;;;7.65;85.08
15529;BME280;7866;52.280;9.500;2023-03-26T05:32:35;99192.47;;;7.65;85.31
15529;BME280;7866;52.280;9.500;2023-03-26T05:37:37;99190.13;;;7.71;85.34
15529;BME280;7866;52.280;9.500;2023-03-26T05:42:40;99181.06;;;7.80;85.26
15529;BME280;7866;52.280;9.500;2023-03-26T05:47:42;99184.19;;;7.83;84.75
15529;BME280;7866;52.280;9.500;2023-03-26T05:52:44;99189.63;;;7.90;84.71
15529;BME280;7866;52.280;9.500;2023-03-26T05:57:47;99189.09;;;7.95;84.45
15529;BME280;7866;52.280;9.500;2023-03-26T06:02:49;99179.53;;;8.00;84.44
15529;BME280;7866;52.280;9.500;2023-03-26T06:07:51;99179.88;;;7.97;84.14
15529;BME280;7866;52.280;9.500;2023-03-26T06:12:54;99175.03;;;8.01;84.14
15529;BME280;7866;52.280;9.500;2023-03-26T06:17:55;99173.03;;;8.03;83.94
15529;BME280;7866;52.280;9.500;2023-03-26T06:22:57;99161.91;;;8.14;83.61
15529;BME280;7866;52.280;9.500;2023-03-26T06:28:00;99169.09;;;8.28;83.33
15529;BME280;7866;52.280;9.500;2023-03-26T06:33:01;99169.00;;;8.36;82.63
15529;BME280;7866;52.280;9.500;2023-03-26T06:38:03;99171.34;;;8.39;82.48
15529;BME280;7866;52.280;9.500;2023-03-26T06:43:08;99156.34;;;8.38;81.58
15529;BME280;7866;52.280;9.500;2023-03-26T06:48:09;99156.97;;;8.55;81.79
15529;BME280;7866;52.280;9.500;2023-03-26T06:53:11;99150.06;;;8.61;81.18
15529;BME280;7866;52.280;9.500;2023-03-26T06:58:14;99156.88;;;8.63;80.59
15529;BME280;7866;52.280;9.500;2023-03-26T08:52:35;99103.56;;;10.05;75.74
15529;BME280;7866;52.280;9.500;2023-03-26T09:09:03;99097.03;;;10.15;74.06
15529;BME280;7866;52.280;9.500;2023-03-26T09:14:28;99102.41;;;10.49;74.44
15529;BME280;7866;52.280;9.500;2023-03-26T09:19:45;99089.06;;;10.63;73.97
15529;BME280;7866;52.280;9.500;2023-03-26T09:25:14;99085.09;;;10.17;73.86
15529;BME280;7866;52.280;9.500;2023-03-26T09:30:31;99090.09;;;10.62;74.44
15529;BME280;7866;52.280;9.500;2023-03-26T09:35:50;99085.69;;;10.12;74.00
15529;BME280;7866;52.280;9.500;2023-03-26T09:40:58;99074.09;;;10.27;74.13
15529;BME280;7866;52.280;9.500;2023-03-26T09:46:13;99079.50;;;10.40;73.67
15529;BME280;7866;52.280;9.500;2023-03-26T09:51:42;99071.25;;;10.35;72.70
15529;BME280;7866;52.280;9.500;2023-03-26T09:56:53;99072.50;;;10.39;72.35
15529;BME280;7866;52.280;9.500;2023-03-26T10:02:09;99077.63;;;10.34;73.82
15529;BME280;7866;52.280;9.500;2023-03-26T10:07:25;99069.59;;;10.34;74.33
15529;BME280;7866;52.280;9.500;2023-03-26T10:12:35;99069.81;;;10.04;74.20
15529;BME280;7866;52.280;9.500;2023-03-26T10:17:48;99077.22;;;10.02;74.70
15529;BME280;7866;52.280;9.500;2023-03-26T10:23:03;99067.81;;;9.78;74.74
15529;BME280;7866;52.280;9.500;2023-03-26T10:28:20;99069.53;;;9.93;75.47
15529;BME280;7866;52.280;9.500;2023-03-26T10:33:30;99067.44;;;9.88;75.30
15529;BME280;7866;52.280;9.500;2023-03-26T10:38:51;99056.38;;;10.26;74.53
15529;BME280;7866;52.280;9.500;2023-03-26T10:44:31;99061.66;;;10.54;74.22
15529;BME280;7866;52.280;9.500;2023-03-26T10:50:22;99053.06;;;10.78;73.07
15529;BME280;7866;52.280;9.500;2023-03-26T10:55:31;99056.53;;;10.66;73.14
15529;BME280;7866;52.280;9.500;2023-03-26T11:00:41;99057.63;;;10.91;73.04
15529;BME280;7866;52.280;9.500;2023-03-26T11:05:49;99059.31;;;11.19;72.82
15529;BME280;7866;52.280;9.500;2023-03-26T11:10:57;99056.03;;;11.43;71.98
15529;BME280;7866;52.280;9.500;2023-03-26T11:16:04;99054.56;;;11.07;72.10
15529;BME280;7866;52.280;9.500;2023-03-26T11:21:16;99055.00;;;11.24;71.92
15529;BME280;7866;52.280;9.500;2023-03-26T11:26:22;99049.44;;;11.39;71.37
15529;BME280;7866;52.280;9.500;2023-03-26T11:31:37;99047.78;;;11.38;71.73
15529;BME280;7866;52.280;9.500;2023-03-26T11:36:45;99039.72;;;11.45;71.22
15529;BME280;7866;52.280;9.500;2023-03-26T11:41:51;99029.00;;;11.12;72.28
15529;BME280;7866;52.280;9.500;2023-03-26T11:47:00;99035.00;;;11.33;72.42
15529;BME280;7866;52.280;9.500;2023-03-26T11:52:03;99028.00;;;11.39;71.32
15529;BME280;7866;52.280;9.500;2023-03-26T11:57:09;99032.75;;;11.17;71.29
15529;BME280;7866;52.280;9.500;2023-03-26T12:02:23;99031.28;;;11.54;71.32
15529;BME280;7866;52.280;9.500;2023-03-26T12:07:30;99020.56;;;11.61;70.33
15529;BME280;7866;52.280;9.500;2023-03-26T12:12:33;99027.13;;;11.72;69.90
15529;BME280;7866;52.280;9.500;2023-03-26T12:17:38;99033.13;;;11.67;70.13
15529;BME280;7866;52.280;9.500;2023-03-26T12:22:41;99023.97;;;12.08;68.48
15529;BME280;7866;52.280;9.500;2023-03-26T12:27:43;99020.31;;;11.76;68.14
15529;BME280;7866;52.280;9.500;2023-03-26T12:32:48;99012.41;;;12.14;68.85
15529;BME280;7866;52.280;9.500;2023-03-26T12:37:51;99014.75;;;11.91;68.65
15529;BME280;7866;52.280;9.500;2023-03-26T12:42:55;99008.16;;;11.93;68.25
15529;BME280;7866;52.280;9.500;2023-03-26T12:47:59;99011.59;;;12.07;68.43
15529;BME280;7866;52.280;9.500;2023-03-26T12:53:10;99011.63;;;11.80;68.32
15529;BME280;7866;52.280;9.500;2023-03-26T12:58:30;99012.09;;;11.64;68.28
15529;BME280;7866;52.280;9.500;2023-03-26T13:03:43;99000.13;;;11.73;68.25
15529;BME280;7866;52.280;9.500;2023-03-26T13:09:03;99003.66;;;11.34;70.11
15529;BME280;7866;52.280;9.500;2023-03-26T13:14:32;98999.53;;;11.05;70.62
15529;BME280;7866;52.280;9.500;2023-03-26T13:19:45;98998.69;;;10.78;72.18
15529;BME280;7866;52.280;9.500;2023-03-26T13:24:57;99001.97;;;10.73;72.20
15529;BME280;7866;52.280;9.500;2023-03-26T13:30:05;99010.94;;;10.39;72.88
15529;BME280;7866;52.280;9.500;2023-03-26T13:35:21;99004.41;;;10.55;72.39
15529;BME280;7866;52.280;9.500;2023-03-26T13:40:36;99000.91;;;10.61;72.30
15529;BME280;7866;52.280;9.500;2023-03-26T13:45:53;99001.28;;;10.51;72.64
15529;BME280;7866;52.280;9.500;2023-03-26T13:51:02;99000.13;;;10.19;72.86
15529;BME280;7866;52.280;9.500;2023-03-26T13:56:09;99000.44;;;9.96;74.26
15529;BME280;7866;52.280;9.500;2023-03-26T14:01:14;99003.66;;;9.85;74.12
15529;BME280;7866;52.280;9.500;2023-03-26T14:06:40;98997.41;;;10.06;73.50
15529;BME280;7866;52.280;9.500;2023-03-26T14:11:52;99012.66;;;9.77;73.96
15529;BME280;7866;52.280;9.500;2023-03-26T14:17:01;99005.78;;;9.96;73.62
15529;BME280;7866;52.280;9.500;2023-03-26T14:22:15;99008.00;;;9.86;74.08
15529;BME280;7866;52.280;9.500;2023-03-26T14:27:37;99013.19;;;9.94;73.33
15529;BME280;7866;52.280;9.500;2023-03-26T14:32:51;99016.03;;;9.93;73.74
15529;BME280;7866;52.280;9.500;2023-03-26T14:43:50;99020.94;;;9.82;73.09
15529;BME280;7866;52.280;9.500;2023-03-26T14:49:17;99031.03;;;9.87;72.42
15529;BME280;7866;52.280;9.500;2023-03-26T14:54:25;99021.09;;;9.81;71.88
15529;BME280;7866;52.280;9.500;2023-03-26T14:59:49;99022.84;;;9.60;71.94
15529;BME280;7866;52.280;9.500;2023-03-26T15:11:11;99026.16;;;9.34;71.41
15529;BME280;7866;52.280;9.500;2023-03-26T15:16:41;99025.34;;;9.34;70.78
15529;BME280;7866;52.280;9.500;2023-03-26T15:22:19;99026.03;;;9.49;71.33
15529;BME280;7866;52.280;9.500;2023-03-26T15:27:49;99028.81;;;9.34;71.02
15529;BME280;7866;52.280;9.500;2023-03-26T15:44:42;99045.31;;;9.38;70.06
15529;BME280;7866;52.280;9.500;2023-03-26T15:49:51;99048.50;;;9.27;69.70
15529;BME280;7866;52.280;9.500;2023-03-26T15:55:00;99046.84;;;9.26;70.61
15529;BME280;7866;52.280;9.500;2023-03-26T16:00:18;99057.09;;;9.22;69.62
15529;BME280;7866;52.280;9.500;2023-03-26T16:05:30;99056.44;;;9.20;69.66
15529;BME280;7866;52.280;9.500;2023-03-26T16:10:38;99048.81;;;9.17;69.68
15529;BME280;7866;52.280;9.500;2023-03-26T16:15:48;99063.56;;;9.13;69.41
15529;BME280;7866;52.280;9.500;2023-03-26T16:20:52;99062.91;;;8.89;69.33
15529;BME280;7866;52.280;9.500;2023-03-26T16:25:58;99066.56;;;9.03;68.89
15529;BME280;7866;52.280;9.500;2023-03-26T16:31:29;99068.56;;;9.01;67.16
15529;BME280;7866;52.280;9.500;2023-03-26T16:36:36;99077.63;;;9.00;68.39
15529;BME280;7866;52.280;9.500;2023-03-26T16:41:53;99086.63;;;8.78;68.24
15529;BME280;7866;52.280;9.500;2023-03-26T16:47:02;99089.22;;;8.71;68.59
15529;BME280;7866;52.280;9.500;2023-03-26T16:52:24;99091.56;;;8.81;69.07
15529;BME280;7866;52.280;9.500;2023-03-26T16:57:35;99111.75;;;8.69;66.85
15529;BME280;7866;52.280;9.500;2023-03-26T17:02:51;99111.59;;;8.70;67.36
15529;BME280;7866;52.280;9.500;2023-03-26T17:08:00;99117.41;;;8.59;67.53
15529;BME280;7866;52.280;9.500;2023-03-26T17:13:08;99123.78;;;8.43;66.72
15529;BME280;7866;52.280;9.500;2023-03-26T17:18:28;99124.13;;;8.40;66.26
15529;BME280;7866;52.280;9.500;2023-03-26T17:23:56;99130.66;;;8.52;66.70
15529;BME280;7866;52.280;9.500;2023-03-26T17:29:09;99131.00;;;8.49;67.15
15529;BME280;7866;52.280;9.500;2023-03-26T17:45:39;99157.84;;;8.33;67.84
15529;BME280;7866;52.280;9.500;2023-03-26T17:50:48;99152.66;;;8.39;67.98
15529;BME280;7866;52.280;9.500;2023-03-26T17:55:51;99159.25;;;8.29;67.56
15529;BME280;7866;52.280;9.500;2023-03-26T18:01:03;99174.50;;;8.20;66.74
15529;BME280;7866;52.280;9.500;2023-03-26T18:06:08;99190.22;;;8.15;67.45
15529;BME280;7866;52.280;9.500;2023-03-26T18:11:35;99202.97;;;7.90;64.92
15529;BME280;7866;52.280;9.500;2023-03-26T18:16:41;99213.38;;;7.77;64.69
15529;BME280;7866;52.280;9.500;2023-03-26T18:21:46;99227.59;;;7.69;63.93
15529;BME280;7866;52.280;9.500;2023-03-26T18:26:53;99230.16;;;7.62;64.33
15529;BME280;7866;52.280;9.500;2023-03-26T18:31:58;99247.47;;;7.67;64.76
15529;BME280;7866;52.280;9.500;2023-03-26T18:37:12;99244.28;;;7.40;64.26
15529;BME280;7866;52.280;9.500;2023-03-26T18:42:17;99260.66;;;7.29;65.62
15529;BME280;7866;52.280;9.500;2023-03-26T18:47:23;99260.41;;;7.15;65.83
15529;BME280;7866;52.280;9.500;2023-03-26T18:52:27;99262.28;;;7.07;66.00
15529;BME280;7866;52.280;9.500;2023-03-26T18:57:29;99275.28;;;6.94;65.24
15529;BME280;7866;52.280;9.500;2023-03-26T19:02:32;99285.84;;;6.79;64.84
15529;BME280;7866;52.280;9.500;2023-03-26T19:07:34;99291.31;;;6.77;64.18
15529;BME280;7866;52.280;9.500;2023-03-26T19:12:37;99300.34;;;6.60;66.55
15529;BME280;7866;52.280;9.500;2023-03-26T19:17:42;99300.03;;;6.38;66.09
15529;BME280;7866;52.280;9.500;2023-03-26T19:22:45;99313.50;;;6.37;66.04
15529;BME280;7866;52.280;9.500;2023-03-26T19:27:48;99322.66;;;6.34;66.66
15529;BME280;7866;52.280;9.500;2023-03-26T19:32:53;99335.59;;;6.13;67.57
15529;BME280;7866;52.280;9.500;2023-03-26T19:37:55;99352.53;;;6.04;66.35
15529;BME280;7866;52.280;9.500;2023-03-26T19:42:57;99352.19;;;5.99;67.78
15529;BME280;7866;52.280;9.500;2023-03-26T19:48:00;99362.78;;;5.90;67.65
15529;BME280;7866;52.280;9.500;2023-03-26T19:53:14;99372.69;;;5.64;67.42
15529;BME280;7866;52.280;9.500;2023-03-26T19:58:21;99378.13;;;5.62;67.74
15529;BME280;7866;52.280;9.500;2023-03-26T20:03:27;99382.44;;;5.55;68.61
15529;BME280;7866;52.280;9.500;2023-03-26T20:08:29;99381.13;;;5.59;68.16
15529;BME280;7866;52.280;9.500;2023-03-26T20:13:31;99391.69;;;5.43;68.03
15529;BME280;7866;52.280;9.500;2023-03-26T20:18:34;99392.59;;;5.68;68.47
15529;BME280;7866;52.280;9.500;2023-03-26T20:23:36;99397.97;;;5.42;67.64
15529;BME280;7866;52.280;9.500;2023-03-26T20:28:38;99399.66;;;5.43;67.92
15529;BME280;7866;52.280;9.500;2023-03-26T20:33:41;99405.84;;;5.60;67.97
15529;BME280;7866;52.280;9.500;2023-03-26T20:38:44;99411.25;;;5.42;68.33
15529;BME280;7866;52.280;9.500;2023-03-26T20:43:46;99416.41;;;5.43;68.71
15529;BME280;7866;52.280;9.500;2023-03-26T20:48:49;99424.00;;;5.38;69.00
15529;BME280;7866;52.280;9.500;2023-03-26T20:53:51;99431.56;;;5.25;68.43
15529;BME280;7866;52.280;9.500;2023-03-26T20:58:53;99431.34;;;5.18;68.71
15529;BME280;7866;52.280;9.500;2023-03-26T21:03:58;99433.34;;;4.90;68.97
15529;BME280;7866;52.280;9.500;2023-03-26T21:09:02;99442.81;;;4.93;69.05
15529;BME280;7866;52.280;9.500;2023-03-26T21:14:07;99444.59;;;5.10;69.00
15529;BME280;7866;52.280;9.500;2023-03-26T21:19:16;99436.25;;;5.05;68.71
15529;BME280;7866;52.280;9.500;2023-03-26T21:24:24;99447.88;;;5.04;68.50
15529;BME280;7866;52.280;9.500;2023-03-26T21:29:32;99467.50;;;5.11;68.52
15529;BME280;7866;52.280;9.500;2023-03-26T21:34:36;99483.91;;;4.89;70.12
15529;BME280;7866;52.280;9.500;2023-03-26T21:39:38;99486.75;;;5.13;68.45
15529;BME280;7866;52.280;9.500;2023-03-26T21:44:42;99485.09;;;4.94;68.92
15529;BME280;7866;52.280;9.500;2023-03-26T21:49:46;99507.78;;;4.89;68.04
15529;BME280;7866;52.280;9.500;2023-03-26T21:54:48;99513.03;;;4.81;68.55
15529;BME280;7866;52.280;9.500;2023-03-26T21:59:58;99514.06;;;4.70;68.91
15529;BME280;7866;52.280;9.500;2023-03-26T22:05:12;99522.78;;;4.62;69.01
15529;BME280;7866;52.280;9.500;2023-03-26T22:10:15;99535.38;;;4.60;69.01
15529;BME280;7866;52.280;9.500;2023-03-26T22:15:17;99536.59;;;4.48;69.16
15529;BME280;7866;52.280;9.500;2023-03-26T22:20:21;99545.94;;;4.42;69.44
15529;BME280;7866;52.280;9.500;2023-03-26T22:25:24;99553.03;;;4.52;68.99
15529;BME280;7866;52.280;9.500;2023-03-26T22:30:26;99564.91;;;4.48;68.86
15529;BME280;7866;52.280;9.500;2023-03-26T22:35:30;99569.59;;;4.54;69.56
15529;BME280;7866;52.280;9.500;2023-03-26T22:40:31;99573.78;;;4.56;69.80
15529;BME280;7866;52.280;9.500;2023-03-26T22:45:33;99586.25;;;4.46;68.98
15529;BME280;7866;52.280;9.500;2023-03-26T22:50:38;99590.88;;;4.44;69.73
15529;BME280;7866;52.280;9.500;2023-03-26T22:55:41;99600.31;;;4.56;69.17
15529;BME280;7866;52.280;9.500;2023-03-26T23:00:43;99606.16;;;4.32;69.27
15529;BME280;7866;52.280;9.500;2023-03-26T23:05:55;99621.31;;;4.40;69.69
15529;BME280;7866;52.280;9.500;2023-03-26T23:10:57;99633.69;;;4.49;68.74
15529;BME280;7866;52.280;9.500;2023-03-26T23:15:59;99638.72;;;4.42;68.31
15529;BME280;7866;52.280;9.500;2023-03-26T23:21:03;99647.72;;;4.32;68.89
15529;BME280;7866;52.280;9.500;2023-03-26T23:26:06;99661.00;;;4.22;68.68
15529;BME280;7866;52.280;9.500;2023-03-26T23:31:09;99663.69;;;4.12;68.54
15529;BME280;7866;52.280;9.500;2023-03-26T23:36:14;99669.94;;;4.21;69.07
15529;BME280;7866;52.280;9.500;2023-03-26T23:41:18;99684.75;;;4.14;68.35
15529;BME280;7866;52.280;9.500;2023-03-26T23:46:21;99702.06;;;3.99;68.40
15529;BME280;7866;52.280;9.500;2023-03-26T23:51:24;99709.03;;;4.09;68.29
15529;BME280;7866;52.280;9.500;2023-03-26T23:56:26;99732.78;;;3.91;67.82
